sensor_id;sensor_type;location;lat;lon;timestamp;temperature;humidity
27188;DHT22;14708;50.872;5.306;2023-07-09T00:05:54;28.40;52.70
27188;DHT22;14708;50.872;5.306;2023-07-09T00:08:48;28.40;52.80
27188;DHT22;14708;50.872;5.306;2023-07-09T00:12:11;28.40;52.80
27188;DHT22;14708;50.872;5.306;2023-07-09T03:54:42;28.20;52.20
27188;DHT22;14708;50.872;5.306;2023-07-09T03:57:36;28.30;52.10
27188;DHT22;14708;50.872;5.306;2023-07-09T04:00:58;28.30;52.00
27188;DHT22;14708;50.872;5.306;2023-07-09T04:10:45;28.30;52.20
27188;DHT22;14708;50.872;5.306;2023-07-09T04:17:02;28.30;52.00
27188;DHT22;14708;50.872;5.306;2023-07-09T04:20:03;28.30;51.80
27188;DHT22;14708;50.872;5.306;2023-07-09T04:26:35;28.30;51.80
27188;DHT22;14708;50.872;5.306;2023-07-09T04:33:20;28.40;51.60
27188;DHT22;14708;50.872;5.306;2023-07-09T04:46:55;28.40;51.50
27188;DHT22;14708;50.872;5.306;2023-07-09T04:50:03;28.40;51.40
27188;DHT22;14708;50.872;5.306;2023-07-09T05:21:57;28.40;51.50
27188;DHT22;14708;50.872;5.306;2023-07-09T05:31:48;28.50;51.10
27188;DHT22;14708;50.872;5.306;2023-07-09T06:18:50;28.70;51.10
27188;DHT22;14708;50.872;5.306;2023-07-09T06:21:15;28.70;51.10
27188;DHT22;14708;50.872;5.306;2023-07-09T06:23:41;28.70;50.70
27188;DHT22;14708;50.872;5.306;2023-07-09T06:26:06;28.70;50.40
27188;DHT22;14708;50.872;5.306;2023-07-09T06:28:33;28.70;50.80
27188;DHT22;14708;50.872;5.306;2023-07-09T06:30:58;28.80;50.80
27188;DHT22;14708;50.872;5.306;2023-07-09T06:33:25;28.80;51.00
27188;DHT22;14708;50.872;5.306;2023-07-09T06:35:53;28.80;51.70
27188;DHT22;14708;50.872;5.306;2023-07-09T06:38:19;28.80;52.10
27188;DHT22;14708;50.872;5.306;2023-07-09T06:40:46;28.80;53.30
27188;DHT22;14708;50.872;5.306;2023-07-09T06:43:12;28.80;53.10
27188;DHT22;14708;50.872;5.306;2023-07-09T06:45:38;28.80;53.60
27188;DHT22;14708;50.872;5.306;2023-07-09T06:48:04;28.90;54.30
27188;DHT22;14708;50.872;5.306;2023-07-09T06:50:33;28.80;54.80
27188;DHT22;14708;50.872;5.306;2023-07-09T06:52:58;28.80;54.00
27188;DHT22;14708;50.872;5.306;2023-07-09T06:55:24;28.90;53.40
27188;DHT22;14708;50.872;5.306;2023-07-09T06:57:50;29.00;53.40
27188;DHT22;14708;50.872;5.306;2023-07-09T07:00:16;29.00;53.50
27188;DHT22;14708;50.872;5.306;2023-07-09T07:02:42;28.90;53.60
27188;DHT22;14708;50.872;5.306;2023-07-09T07:05:08;28.90;53.80
27188;DHT22;14708;50.872;5.306;2023-07-09T07:07:34;29.00;53.40
27188;DHT22;14708;50.872;5.306;2023-07-09T07:10:00;29.00;53.30
27188;DHT22;14708;50.872;5.306;2023-07-09T07:12:27;29.00;54.40
27188;DHT22;14708;50.872;5.306;2023-07-09T07:14:54;28.90;53.80
27188;DHT22;14708;50.872;5.306;2023-07-09T07:17:21;28.90;53.90
27188;DHT22;14708;50.872;5.306;2023-07-09T07:19:46;28.80;53.90
27188;DHT22;14708;50.872;5.306;2023-07-09T07:22:12;28.90;53.50
27188;DHT22;14708;50.872;5.306;2023-07-09T07:24:38;28.90;53.50
27188;DHT22;14708;50.872;5.306;2023-07-09T07:27:04;28.80;54.00
27188;DHT22;14708;50.872;5.306;2023-07-09T07:29:30;28.90;53.90
27188;DHT22;14708;50.872;5.306;2023-07-09T07:31:56;28.80;53.80
27188;DHT22;14708;50.872;5.306;2023-07-09T07:34:22;28.80;53.90
27188;DHT22;14708;50.872;5.306;2023-07-09T07:36:49;28.90;53.80
27188;DHT22;14708;50.872;5.306;2023-07-09T07:39:15;28.90;53.30
27188;DHT22;14708;50.872;5.306;2023-07-09T07:41:41;28.80;53.90
27188;DHT22;14708;50.872;5.306;2023-07-09T07:44:12;28.90;53.90
27188;DHT22;14708;50.872;5.306;2023-07-09T07:46:37;28.90;54.10
27188;DHT22;14708;50.872;5.306;2023-07-09T07:49:04;28.90;53.90
27188;DHT22;14708;50.872;5.306;2023-07-09T07:51:29;28.80;54.10
27188;DHT22;14708;50.872;5.306;2023-07-09T07:53:56;28.90;54.20
27188;DHT22;14708;50.872;5.306;2023-07-09T07:56:21;28.80;54.60
27188;DHT22;14708;50.872;5.306;2023-07-09T07:58:47;28.90;54.10
27188;DHT22;14708;50.872;5.306;2023-07-09T08:01:13;28.90;54.00
27188;DHT22;14708;50.872;5.306;2023-07-09T08:03:38;28.90;54.00
27188;DHT22;14708;50.872;5.306;2023-07-09T08:06:04;28.80;54.20
27188;DHT22;14708;50.872;5.306;2023-07-09T08:08:30;28.80;54.30
27188;DHT22;14708;50.872;5.306;2023-07-09T08:11:06;28.80;54.40
27188;DHT22;14708;50.872;5.306;2023-07-09T08:13:34;28.80;54.80
27188;DHT22;14708;50.872;5.306;2023-07-09T08:16:00;28.80;54.50
27188;DHT22;14708;50.872;5.306;2023-07-09T08:18:26;29.00;54.90
27188;DHT22;14708;50.872;5.306;2023-07-09T08:20:51;28.80;55.30
27188;DHT22;14708;50.872;5.306;2023-07-09T08:23:17;28.80;55.50
27188;DHT22;14708;50.872;5.306;2023-07-09T08:25:42;28.80;55.90
27188;DHT22;14708;50.872;5.306;2023-07-09T08:28:08;28.80;55.60
27188;DHT22;14708;50.872;5.306;2023-07-09T08:30:35;28.80;55.90
27188;DHT22;14708;50.872;5.306;2023-07-09T08:33:01;28.80;56.00
27188;DHT22;14708;50.872;5.306;2023-07-09T08:35:26;28.80;55.70
27188;DHT22;14708;50.872;5.306;2023-07-09T08:37:52;28.80;56.70
27188;DHT22;14708;50.872;5.306;2023-07-09T08:40:18;28.80;56.60
27188;DHT22;14708;50.872;5.306;2023-07-09T08:42:46;28.80;56.60
27188;DHT22;14708;50.872;5.306;2023-07-09T08:46:01;28.80;56.80
27188;DHT22;14708;50.872;5.306;2023-07-09T08:48:33;28.80;56.30
27188;DHT22;14708;50.872;5.306;2023-07-09T08:51:04;28.90;56.40
27188;DHT22;14708;50.872;5.306;2023-07-09T08:53:38;28.90;56.40
27188;DHT22;14708;50.872;5.306;2023-07-09T08:56:09;29.00;56.10
27188;DHT22;14708;50.872;5.306;2023-07-09T08:58:36;29.00;56.40
27188;DHT22;14708;50.872;5.306;2023-07-09T09:01:05;28.90;56.50
27188;DHT22;14708;50.872;5.306;2023-07-09T09:03:40;29.00;55.80
27188;DHT22;14708;50.872;5.306;2023-07-09T09:06:15;29.00;56.20
27188;DHT22;14708;50.872;5.306;2023-07-09T09:11:21;29.00;55.40
27188;DHT22;14708;50.872;5.306;2023-07-09T09:13:51;29.00;56.00
27188;DHT22;14708;50.872;5.306;2023-07-09T09:16:25;29.00;56.40
27188;DHT22;14708;50.872;5.306;2023-07-09T09:18:55;29.00;56.50
27188;DHT22;14708;50.872;5.306;2023-07-09T09:21:41;29.00;57.00
27188;DHT22;14708;50.872;5.306;2023-07-09T09:24:21;29.00;57.30
27188;DHT22;14708;50.872;5.306;2023-07-09T09:26:50;28.90;57.30
27188;DHT22;14708;50.872;5.306;2023-07-09T09:29:17;28.90;57.20
27188;DHT22;14708;50.872;5.306;2023-07-09T09:31:49;28.90;57.50
27188;DHT22;14708;50.872;5.306;2023-07-09T09:34:21;28.80;57.90
27188;DHT22;14708;50.872;5.306;2023-07-09T09:36:47;28.80;58.10
27188;DHT22;14708;50.872;5.306;2023-07-09T09:39:12;28.80;58.20
27188;DHT22;14708;50.872;5.306;2023-07-09T09:41:38;28.90;57.80
27188;DHT22;14708;50.872;5.306;2023-07-09T09:44:05;28.90;57.40
27188;DHT22;14708;50.872;5.306;2023-07-09T09:46:32;29.10;57.10
27188;DHT22;14708;50.872;5.306;2023-07-09T09:49:02;29.20;57.20
27188;DHT22;14708;50.872;5.306;2023-07-09T09:51:28;29.30;57.30
27188;DHT22;14708;50.872;5.306;2023-07-09T09:53:59;29.40;57.10
27188;DHT22;14708;50.872;5.306;2023-07-09T09:56:35;29.50;56.80
27188;DHT22;14708;50.872;5.306;2023-07-09T09:59:03;29.30;57.30
27188;DHT22;14708;50.872;5.306;2023-07-09T10:01:31;29.20;57.70
27188;DHT22;14708;50.872;5.306;2023-07-09T10:03:59;29.20;57.60
27188;DHT22;14708;50.872;5.306;2023-07-09T10:11:53;29.10;57.80
27188;DHT22;14708;50.872;5.306;2023-07-09T10:17:05;29.10;57.60
27188;DHT22;14708;50.872;5.306;2023-07-09T10:22:39;29.10;58.10
27188;DHT22;14708;50.872;5.306;2023-07-09T10:25:12;29.10;57.80
27188;DHT22;14708;50.872;5.306;2023-07-09T10:28:01;29.10;57.80
27188;DHT22;14708;50.872;5.306;2023-07-09T10:30:46;29.10;57.70
27188;DHT22;14708;50.872;5.306;2023-07-09T10:33:26;29.10;57.60
27188;DHT22;14708;50.872;5.306;2023-07-09T10:36:20;29.20;57.40
27188;DHT22;14708;50.872;5.306;2023-07-09T10:39:18;29.20;57.30
27188;DHT22;14708;50.872;5.306;2023-07-09T10:41:41;29.10;57.60
27188;DHT22;14708;50.872;5.306;2023-07-09T10:46:43;29.20;57.50
27188;DHT22;14708;50.872;5.306;2023-07-09T10:49:12;29.20;57.30
27188;DHT22;14708;50.872;5.306;2023-07-09T10:57:18;29.10;58.00
27188;DHT22;14708;50.872;5.306;2023-07-09T10:59:49;29.10;58.40
27188;DHT22;14708;50.872;5.306;2023-07-09T11:02:21;29.10;58.40
27188;DHT22;14708;50.872;5.306;2023-07-09T11:04:58;29.10;59.20
27188;DHT22;14708;50.872;5.306;2023-07-09T11:07:33;29.00;59.20
27188;DHT22;14708;50.872;5.306;2023-07-09T11:10:10;29.00;58.70
27188;DHT22;14708;50.872;5.306;2023-07-09T11:12:43;29.10;59.50
27188;DHT22;14708;50.872;5.306;2023-07-09T11:15:17;29.10;59.50
27188;DHT22;14708;50.872;5.306;2023-07-09T11:17:45;29.10;59.40
27188;DHT22;14708;50.872;5.306;2023-07-09T11:20:31;29.20;59.00
27188;DHT22;14708;50.872;5.306;2023-07-09T11:23:22;29.30;59.10
27188;DHT22;14708;50.872;5.306;2023-07-09T11:26:02;29.40;58.90
27188;DHT22;14708;50.872;5.306;2023-07-09T11:28:36;29.40;58.80
27188;DHT22;14708;50.872;5.306;2023-07-09T11:34:07;29.50;59.10
27188;DHT22;14708;50.872;5.306;2023-07-09T11:36:35;29.60;58.80
27188;DHT22;14708;50.872;5.306;2023-07-09T11:45:54;29.90;58.30
27188;DHT22;14708;50.872;5.306;2023-07-09T11:48:29;29.70;55.90
27188;DHT22;14708;50.872;5.306;2023-07-09T11:51:10;29.50;54.00
27188;DHT22;14708;50.872;5.306;2023-07-09T11:53:46;29.30;52.60
27188;DHT22;14708;50.872;5.306;2023-07-09T11:56:34;29.20;51.10
27188;DHT22;14708;50.872;5.306;2023-07-09T11:59:19;29.00;50.70
27188;DHT22;14708;50.872;5.306;2023-07-09T12:02:18;29.10;49.30
27188;DHT22;14708;50.872;5.306;2023-07-09T12:04:47;29.00;47.70
27188;DHT22;14708;50.872;5.306;2023-07-09T12:07:16;28.90;46.20
27188;DHT22;14708;50.872;5.306;2023-07-09T12:09:50;28.80;45.90
27188;DHT22;14708;50.872;5.306;2023-07-09T12:12:26;28.80;45.00
27188;DHT22;14708;50.872;5.306;2023-07-09T12:14:53;28.70;44.20
27188;DHT22;14708;50.872;5.306;2023-07-09T12:17:25;28.70;43.50
27188;DHT22;14708;50.872;5.306;2023-07-09T12:19:52;28.60;43.30
27188;DHT22;14708;50.872;5.306;2023-07-09T12:22:46;28.50;43.10
27188;DHT22;14708;50.872;5.306;2023-07-09T12:25:25;28.40;43.60
27188;DHT22;14708;50.872;5.306;2023-07-09T12:27:54;28.50;44.10
27188;DHT22;14708;50.872;5.306;2023-07-09T12:30:23;28.40;43.50
27188;DHT22;14708;50.872;5.306;2023-07-09T12:32:50;28.50;43.00
27188;DHT22;14708;50.872;5.306;2023-07-09T12:35:18;28.50;42.80
27188;DHT22;14708;50.872;5.306;2023-07-09T12:37:46;28.50;42.60
27188;DHT22;14708;50.872;5.306;2023-07-09T12:46:56;28.50;41.50
27188;DHT22;14708;50.872;5.306;2023-07-09T12:49:27;28.60;41.10
27188;DHT22;14708;50.872;5.306;2023-07-09T12:52:01;28.50;40.80
27188;DHT22;14708;50.872;5.306;2023-07-09T12:55:01;28.50;41.10
27188;DHT22;14708;50.872;5.306;2023-07-09T12:57:28;28.50;41.10
27188;DHT22;14708;50.872;5.306;2023-07-09T12:59:54;28.50;40.80
27188;DHT22;14708;50.872;5.306;2023-07-09T13:02:28;28.50;40.80
27188;DHT22;14708;50.872;5.306;2023-07-09T13:05:06;28.50;40.70
27188;DHT22;14708;50.872;5.306;2023-07-09T13:07:39;28.40;40.40
27188;DHT22;14708;50.872;5.306;2023-07-09T13:10:23;28.30;40.10
27188;DHT22;14708;50.872;5.306;2023-07-09T13:12:57;28.10;40.60
27188;DHT22;14708;50.872;5.306;2023-07-09T13:15:41;28.20;41.10
27188;DHT22;14708;50.872;5.306;2023-07-09T13:18:15;28.30;40.90
27188;DHT22;14708;50.872;5.306;2023-07-09T13:20:43;28.30;41.50
27188;DHT22;14708;50.872;5.306;2023-07-09T13:23:14;28.40;42.40
27188;DHT22;14708;50.872;5.306;2023-07-09T13:25:41;28.40;43.30
27188;DHT22;14708;50.872;5.306;2023-07-09T13:28:21;28.50;44.10
27188;DHT22;14708;50.872;5.306;2023-07-09T13:30:58;28.50;44.20
27188;DHT22;14708;50.872;5.306;2023-07-09T13:33:55;28.70;45.00
27188;DHT22;14708;50.872;5.306;2023-07-09T13:36:22;28.80;45.10
27188;DHT22;14708;50.872;5.306;2023-07-09T13:38:54;28.80;44.40
27188;DHT22;14708;50.872;5.306;2023-07-09T13:41:22;28.60;44.50
27188;DHT22;14708;50.872;5.306;2023-07-09T13:43:49;28.70;44.00
27188;DHT22;14708;50.872;5.306;2023-07-09T13:46:16;28.70;44.50
27188;DHT22;14708;50.872;5.306;2023-07-09T13:52:56;28.70;45.80
27188;DHT22;14708;50.872;5.306;2023-07-09T13:55:40;28.80;46.20
27188;DHT22;14708;50.872;5.306;2023-07-09T13:58:42;28.80;46.10
27188;DHT22;14708;50.872;5.306;2023-07-09T14:01:32;29.00;47.10
27188;DHT22;14708;50.872;5.306;2023-07-09T14:03:58;29.10;47.60
27188;DHT22;14708;50.872;5.306;2023-07-09T14:06:53;29.10;48.30
27188;DHT22;14708;50.872;5.306;2023-07-09T14:09:33;29.20;49.10
27188;DHT22;14708;50.872;5.306;2023-07-09T14:12:24;29.30;48.60
27188;DHT22;14708;50.872;5.306;2023-07-09T14:17:36;29.50;49.50
27188;DHT22;14708;50.872;5.306;2023-07-09T14:33:33;29.80;49.60
27188;DHT22;14708;50.872;5.306;2023-07-09T14:59:19;29.80;51.70
27188;DHT22;14708;50.872;5.306;2023-07-09T15:01:45;29.90;51.70
27188;DHT22;14708;50.872;5.306;2023-07-09T15:04:46;29.90;52.60
27188;DHT22;14708;50.872;5.306;2023-07-09T15:07:19;30.00;53.10
27188;DHT22;14708;50.872;5.306;2023-07-09T15:09:45;30.00;52.80
27188;DHT22;14708;50.872;5.306;2023-07-09T15:12:32;29.90;53.10
27188;DHT22;14708;50.872;5.306;2023-07-09T15:25:52;29.90;52.00
27188;DHT22;14708;50.872;5.306;2023-07-09T15:28:47;30.00;52.50
27188;DHT22;14708;50.872;5.306;2023-07-09T15:31:42;30.00;52.40
27188;DHT22;14708;50.872;5.306;2023-07-09T15:34:41;30.10;52.50
27188;DHT22;14708;50.872;5.306;2023-07-09T15:37:41;30.10;51.80
27188;DHT22;14708;50.872;5.306;2023-07-09T15:40:21;30.20;52.70
27188;DHT22;14708;50.872;5.306;2023-07-09T15:42:48;30.20;53.10
27188;DHT22;14708;50.872;5.306;2023-07-09T15:45:18;30.20;53.10
27188;DHT22;14708;50.872;5.306;2023-07-09T15:47:49;30.20;53.30
27188;DHT22;14708;50.872;5.306;2023-07-09T15:50:24;30.30;53.50
27188;DHT22;14708;50.872;5.306;2023-07-09T15:52:51;30.40;53.70
27188;DHT22;14708;50.872;5.306;2023-07-09T15:55:22;30.30;53.70
27188;DHT22;14708;50.872;5.306;2023-07-09T15:57:50;30.40;53.90
27188;DHT22;14708;50.872;5.306;2023-07-09T16:00:21;30.40;54.20
27188;DHT22;14708;50.872;5.306;2023-07-09T16:02:48;30.40;54.40
27188;DHT22;14708;50.872;5.306;2023-07-09T16:05:20;30.40;54.30
27188;DHT22;14708;50.872;5.306;2023-07-09T16:07:46;30.30;52.20
27188;DHT22;14708;50.872;5.306;2023-07-09T16:10:12;30.20;51.10
27188;DHT22;14708;50.872;5.306;2023-07-09T16:12:39;30.10;50.00
27188;DHT22;14708;50.872;5.306;2023-07-09T16:15:21;30.10;49.00
27188;DHT22;14708;50.872;5.306;2023-07-09T16:17:48;30.10;48.40
27188;DHT22;14708;50.872;5.306;2023-07-09T16:20:19;30.00;48.00
27188;DHT22;14708;50.872;5.306;2023-07-09T16:23:01;29.90;47.60
27188;DHT22;14708;50.872;5.306;2023-07-09T16:25:36;29.80;48.20
27188;DHT22;14708;50.872;5.306;2023-07-09T16:28:02;29.40;46.90
27188;DHT22;14708;50.872;5.306;2023-07-09T16:30:30;29.20;47.10
27188;DHT22;14708;50.872;5.306;2023-07-09T16:32:57;29.10;46.30
27188;DHT22;14708;50.872;5.306;2023-07-09T16:35:26;28.70;46.10
27188;DHT22;14708;50.872;5.306;2023-07-09T16:37:52;28.10;46.50
27188;DHT22;14708;50.872;5.306;2023-07-09T16:40:27;28.10;46.70
27188;DHT22;14708;50.872;5.306;2023-07-09T16:42:54;28.30;46.80
27188;DHT22;14708;50.872;5.306;2023-07-09T16:45:23;28.50;46.60
27188;DHT22;14708;50.872;5.306;2023-07-09T16:47:49;28.70;46.60
27188;DHT22;14708;50.872;5.306;2023-07-09T16:50:23;28.80;46.70
27188;DHT22;14708;50.872;5.306;2023-07-09T16:52:51;28.80;46.90
27188;DHT22;14708;50.872;5.306;2023-07-09T16:55:26;29.00;47.40
27188;DHT22;14708;50.872;5.306;2023-07-09T16:57:56;29.00;47.50
27188;DHT22;14708;50.872;5.306;2023-07-09T17:00:31;29.00;47.60
27188;DHT22;14708;50.872;5.306;2023-07-09T17:03:03;29.10;47.80
27188;DHT22;14708;50.872;5.306;2023-07-09T17:05:29;29.10;48.20
27188;DHT22;14708;50.872;5.306;2023-07-09T17:07:55;29.10;48.70
27188;DHT22;14708;50.872;5.306;2023-07-09T17:10:21;29.10;48.70
27188;DHT22;14708;50.872;5.306;2023-07-09T17:12:55;29.10;49.50
27188;DHT22;14708;50.872;5.306;2023-07-09T17:15:26;29.10;49.40
27188;DHT22;14708;50.872;5.306;2023-07-09T17:17:55;29.10;49.20
27188;DHT22;14708;50.872;5.306;2023-07-09T17:20:22;29.10;49.30
27188;DHT22;14708;50.872;5.306;2023-07-09T17:22:50;29.10;49.60
27188;DHT22;14708;50.872;5.306;2023-07-09T17:25:34;29.10;49.70
27188;DHT22;14708;50.872;5.306;2023-07-09T17:28:02;29.10;49.70
27188;DHT22;14708;50.872;5.306;2023-07-09T17:30:28;29.10;49.90
27188;DHT22;14708;50.872;5.306;2023-07-09T17:32:55;29.20;49.70
27188;DHT22;14708;50.872;5.306;2023-07-09T17:35:21;29.20;50.30
27188;DHT22;14708;50.872;5.306;2023-07-09T17:37:52;29.20;50.50
27188;DHT22;14708;50.872;5.306;2023-07-09T17:40:24;29.10;51.20
27188;DHT22;14708;50.872;5.306;2023-07-09T17:42:51;29.10;52.00
27188;DHT22;14708;50.872;5.306;2023-07-09T17:45:17;29.30;52.00
27188;DHT22;14708;50.872;5.306;2023-07-09T17:47:43;29.40;52.00
27188;DHT22;14708;50.872;5.306;2023-07-09T17:50:19;29.50;52.00
27188;DHT22;14708;50.872;5.306;2023-07-09T17:52:45;29.60;52.20
27188;DHT22;14708;50.872;5.306;2023-07-09T17:55:13;29.30;50.40
27188;DHT22;14708;50.872;5.306;2023-07-09T17:57:40;29.00;49.90
27188;DHT22;14708;50.872;5.306;2023-07-09T18:00:10;28.70;49.10
27188;DHT22;14708;50.872;5.306;2023-07-09T18:02:40;28.40;48.10
27188;DHT22;14708;50.872;5.306;2023-07-09T18:05:24;28.20;47.60
27188;DHT22;14708;50.872;5.306;2023-07-09T18:07:50;28.10;46.40
27188;DHT22;14708;50.872;5.306;2023-07-09T18:10:16;27.80;45.90
27188;DHT22;14708;50.872;5.306;2023-07-09T18:12:42;27.40;45.30
27188;DHT22;14708;50.872;5.306;2023-07-09T18:15:13;27.10;44.80
27188;DHT22;14708;50.872;5.306;2023-07-09T18:17:40;27.00;44.30
27188;DHT22;14708;50.872;5.306;2023-07-09T18:20:13;26.90;43.80
27188;DHT22;14708;50.872;5.306;2023-07-09T18:22:39;26.60;43.60
27188;DHT22;14708;50.872;5.306;2023-07-09T18:25:05;26.40;43.00
27188;DHT22;14708;50.872;5.306;2023-07-09T18:27:35;26.20;42.80
27188;DHT22;14708;50.872;5.306;2023-07-09T18:30:01;26.00;42.50
27188;DHT22;14708;50.872;5.306;2023-07-09T18:32:28;25.90;41.90
27188;DHT22;14708;50.872;5.306;2023-07-09T18:34:55;25.90;41.40
27188;DHT22;14708;50.872;5.306;2023-07-09T18:37:22;25.80;41.00
27188;DHT22;14708;50.872;5.306;2023-07-09T18:39:48;25.70;40.80
27188;DHT22;14708;50.872;5.306;2023-07-09T18:42:16;26.00;40.70
27188;DHT22;14708;50.872;5.306;2023-07-09T18:44:42;26.40;40.20
27188;DHT22;14708;50.872;5.306;2023-07-09T18:47:10;26.70;39.80
27188;DHT22;14708;50.872;5.306;2023-07-09T18:49:36;26.90;39.70
27188;DHT22;14708;50.872;5.306;2023-07-09T18:52:01;27.00;40.00
27188;DHT22;14708;50.872;5.306;2023-07-09T18:54:28;27.20;40.30
27188;DHT22;14708;50.872;5.306;2023-07-09T18:56:53;27.40;40.20
27188;DHT22;14708;50.872;5.306;2023-07-09T18:59:21;27.50;40.20
27188;DHT22;14708;50.872;5.306;2023-07-09T19:01:48;27.60;40.80
27188;DHT22;14708;50.872;5.306;2023-07-09T19:04:19;27.70;41.20
27188;DHT22;14708;50.872;5.306;2023-07-09T19:06:49;27.80;41.20
27188;DHT22;14708;50.872;5.306;2023-07-09T19:09:17;27.90;41.30
27188;DHT22;14708;50.872;5.306;2023-07-09T19:11:43;27.90;41.50
27188;DHT22;14708;50.872;5.306;2023-07-09T19:14:08;27.90;42.00
27188;DHT22;14708;50.872;5.306;2023-07-09T19:16:34;27.90;42.20
27188;DHT22;14708;50.872;5.306;2023-07-09T19:19:00;27.90;42.20
27188;DHT22;14708;50.872;5.306;2023-07-09T19:21:27;28.00;42.80
27188;DHT22;14708;50.872;5.306;2023-07-09T19:23:55;28.00;42.90
27188;DHT22;14708;50.872;5.306;2023-07-09T19:26:25;27.90;43.00
27188;DHT22;14708;50.872;5.306;2023-07-09T19:28:50;28.00;43.60
27188;DHT22;14708;50.872;5.306;2023-07-09T19:31:16;27.90;43.60
27188;DHT22;14708;50.872;5.306;2023-07-09T19:33:44;28.00;43.80
27188;DHT22;14708;50.872;5.306;2023-07-09T19:36:21;28.00;43.90
27188;DHT22;14708;50.872;5.306;2023-07-09T19:38:48;27.90;44.30
27188;DHT22;14708;50.872;5.306;2023-07-09T19:41:14;28.00;44.70
27188;DHT22;14708;50.872;5.306;2023-07-09T19:43:40;28.00;45.00
27188;DHT22;14708;50.872;5.306;2023-07-09T19:46:15;28.10;45.10
27188;DHT22;14708;50.872;5.306;2023-07-09T19:48:42;28.10;45.20
27188;DHT22;14708;50.872;5.306;2023-07-09T19:51:08;28.20;45.10
27188;DHT22;14708;50.872;5.306;2023-07-09T19:53:34;28.10;45.30
27188;DHT22;14708;50.872;5.306;2023-07-09T19:55:59;28.00;45.40
27188;DHT22;14708;50.872;5.306;2023-07-09T19:58:25;28.00;45.80
27188;DHT22;14708;50.872;5.306;2023-07-09T20:00:51;27.90;46.00
27188;DHT22;14708;50.872;5.306;2023-07-09T20:05:49;28.00;46.60
27188;DHT22;14708;50.872;5.306;2023-07-09T20:08:15;27.90;46.80
27188;DHT22;14708;50.872;5.306;2023-07-09T20:10:42;28.00;46.60
27188;DHT22;14708;50.872;5.306;2023-07-09T20:13:12;28.10;46.70
27188;DHT22;14708;50.872;5.306;2023-07-09T20:15:39;28.00;47.00
27188;DHT22;14708;50.872;5.306;2023-07-09T20:18:12;28.10;46.90
27188;DHT22;14708;50.872;5.306;2023-07-09T20:20:38;28.30;46.80
27188;DHT22;14708;50.872;5.306;2023-07-09T20:23:04;28.20;47.50
27188;DHT22;14708;50.872;5.306;2023-07-09T20:25:30;28.10;47.50
27188;DHT22;14708;50.872;5.306;2023-07-09T20:27:55;28.10;47.60
27188;DHT22;14708;50.872;5.306;2023-07-09T20:30:21;28.10;47.20
27188;DHT22;14708;50.872;5.306;2023-07-09T20:32:48;28.10;47.90
27188;DHT22;14708;50.872;5.306;2023-07-09T20:35:18;28.10;47.20
27188;DHT22;14708;50.872;5.306;2023-07-09T20:37:43;28.00;47.50
27188;DHT22;14708;50.872;5.306;2023-07-09T20:40:14;28.10;47.70
27188;DHT22;14708;50.872;5.306;2023-07-09T20:42:40;28.00;47.60
27188;DHT22;14708;50.872;5.306;2023-07-09T20:45:18;28.00;47.60
27188;DHT22;14708;50.872;5.306;2023-07-09T20:47:49;28.00;48.00
27188;DHT22;14708;50.872;5.306;2023-07-09T20:50:17;28.00;48.20
27188;DHT22;14708;50.872;5.306;2023-07-09T20:52:43;28.00;48.30
27188;DHT22;14708;50.872;5.306;2023-07-09T20:55:11;28.00;47.90
27188;DHT22;14708;50.872;5.306;2023-07-09T20:57:37;28.00;48.00
27188;DHT22;14708;50.872;5.306;2023-07-09T21:00:18;28.00;48.10
27188;DHT22;14708;50.872;5.306;2023-07-09T21:02:45;28.10;48.20
27188;DHT22;14708;50.872;5.306;2023-07-09T21:05:12;28.00;48.30
27188;DHT22;14708;50.872;5.306;2023-07-09T21:07:44;28.00;48.40
27188;DHT22;14708;50.872;5.306;2023-07-09T21:12:41;28.00;48.40
27188;DHT22;14708;50.872;5.306;2023-07-09T21:15:07;28.00;48.50
27188;DHT22;14708;50.872;5.306;2023-07-09T21:17:33;28.00;48.50
27188;DHT22;14708;50.872;5.306;2023-07-09T21:19:59;28.00;48.70
27188;DHT22;14708;50.872;5.306;2023-07-09T21:22:24;28.00;48.80
27188;DHT22;14708;50.872;5.306;2023-07-09T21:24:57;28.00;49.00
27188;DHT22;14708;50.872;5.306;2023-07-09T21:27:28;28.00;49.10
27188;DHT22;14708;50.872;5.306;2023-07-09T21:29:54;28.00;49.00
27188;DHT22;14708;50.872;5.306;2023-07-09T21:32:27;28.00;49.40
27188;DHT22;14708;50.872;5.306;2023-07-09T21:34:55;27.90;49.30
27188;DHT22;14708;50.872;5.306;2023-07-09T21:37:22;27.90;49.70
27188;DHT22;14708;50.872;5.306;2023-07-09T21:39:48;27.90;49.60
27188;DHT22;14708;50.872;5.306;2023-07-09T21:42:14;27.90;49.60
27188;DHT22;14708;50.872;5.306;2023-07-09T21:44:41;27.80;49.80
27188;DHT22;14708;50.872;5.306;2023-07-09T21:47:13;27.90;50.40
27188;DHT22;14708;50.872;5.306;2023-07-09T21:49:41;27.80;49.80
27188;DHT22;14708;50.872;5.306;2023-07-09T21:52:16;27.80;49.90
27188;DHT22;14708;50.872;5.306;2023-07-09T21:54:48;27.90;50.70
27188;DHT22;14708;50.872;5.306;2023-07-09T21:57:15;27.80;50.10
27188;DHT22;14708;50.872;5.306;2023-07-09T21:59:43;27.80;50.10
27188;DHT22;14708;50.872;5.306;2023-07-09T22:02:21;27.90;50.00
27188;DHT22;14708;50.872;5.306;2023-07-09T22:04:47;27.80;50.20
27188;DHT22;14708;50.872;5.306;2023-07-09T22:07:18;27.80;50.20
27188;DHT22;14708;50.872;5.306;2023-07-09T22:09:47;27.90;50.10
27188;DHT22;14708;50.872;5.306;2023-07-09T22:12:13;27.80;50.00
27188;DHT22;14708;50.872;5.306;2023-07-09T22:14:45;27.80;50.20
27188;DHT22;14708;50.872;5.306;2023-07-09T22:17:11;27.80;50.30
27188;DHT22;14708;50.872;5.306;2023-07-09T22:19:36;27.90;50.40
27188;DHT22;14708;50.872;5.306;2023-07-09T22:22:09;27.80;50.40
27188;DHT22;14708;50.872;5.306;2023-07-09T22:24:35;27.80;50.30
27188;DHT22;14708;50.872;5.306;2023-07-09T22:27:00;27.90;50.50
27188;DHT22;14708;50.872;5.306;2023-07-09T22:29:26;27.80;50.50
27188;DHT22;14708;50.872;5.306;2023-07-09T22:31:52;27.80;50.40
27188;DHT22;14708;50.872;5.306;2023-07-09T22:34:21;27.80;50.40
27188;DHT22;14708;50.872;5.306;2023-07-09T22:36:48;27.80;50.50
27188;DHT22;14708;50.872;5.306;2023-07-09T22:39:15;27.80;50.70
27188;DHT22;14708;50.872;5.306;2023-07-09T22:41:42;27.80;50.60
27188;DHT22;14708;50.872;5.306;2023-07-09T22:44:09;27.90;50.60
27188;DHT22;14708;50.872;5.306;2023-07-09T22:46:35;27.90;50.60
27188;DHT22;14708;50.872;5.306;2023-07-09T22:49:01;27.80;50.60
27188;DHT22;14708;50.872;5.306;2023-07-09T22:51:27;27.90;50.70
27188;DHT22;14708;50.872;5.306;2023-07-09T22:53:58;27.90;50.80
27188;DHT22;14708;50.872;5.306;2023-07-09T22:56:24;27.90;50.90
27188;DHT22;14708;50.872;5.306;2023-07-09T22:58:49;27.90;50.90
27188;DHT22;14708;50.872;5.306;2023-07-09T23:01:18;27.90;50.80
27188;DHT22;14708;50.872;5.306;2023-07-09T23:03:45;28.00;50.80
27188;DHT22;14708;50.872;5.306;2023-07-09T23:06:20;27.90;50.90
27188;DHT22;14708;50.872;5.306;2023-07-09T23:08:47;27.90;50.90